createdAt,value
2023-02-17T00:00:25.352Z,97315.28
2023-02-17T00:02:58.477Z,97307.69
2023-02-17T00:05:27.587Z,97302.78
2023-02-17T00:07:55.963Z,97297.97
2023-02-17T00:10:25.093Z,97300.84
2023-02-17T00:12:53.511Z,97299.56
2023-02-17T00:15:22.448Z,97300.00
2023-02-17T00:17:50.751Z,97293.81
2023-02-17T00:20:21.554Z,97294.28
2023-02-17T00:22:49.860Z,97295.47
2023-02-17T00:25:18.986Z,97299.66
2023-02-17T00:27:47.289Z,97280.38
2023-02-17T00:30:18.357Z,97301.22
2023-02-17T00:32:47.180Z,97298.63
2023-02-17T00:35:15.632Z,97301.59
2023-02-17T00:37:46.053Z,97300.44
2023-02-17T00:40:15.595Z,97289.69
2023-02-17T00:42:45.528Z,97301.28
2023-02-17T00:45:14.285Z,97281.72
2023-02-17T00:47:42.595Z,97289.84
2023-02-17T00:50:11.920Z,97291.94
2023-02-17T00:52:40.252Z,97295.94
2023-02-17T00:55:11.264Z,97292.22
2023-02-17T00:57:39.590Z,97293.88
2023-02-17T01:00:10.452Z,97299.25
2023-02-17T01:02:38.839Z,97292.06
2023-02-17T01:05:08.474Z,97278.75
2023-02-17T01:07:37.365Z,97303.50
2023-02-17T01:10:06.493Z,97298.34
2023-02-17T01:12:36.381Z,97297.78
2023-02-17T01:15:05.763Z,97288.44
2023-02-17T01:17:34.864Z,97293.50
2023-02-17T01:20:04.577Z,97296.56
2023-02-17T01:22:33.078Z,97305.09
2023-02-17T01:25:02.471Z,97301.75
2023-02-17T01:27:30.925Z,97286.84
2023-02-17T01:30:02.282Z,97290.00
2023-02-17T01:32:30.692Z,97286.91
2023-02-17T01:34:59.473Z,97284.66
2023-02-17T01:37:27.809Z,97296.72
2023-02-17T01:39:56.648Z,97290.94
2023-02-17T01:42:25.379Z,97287.41
2023-02-17T01:45:31.025Z,97283.13
2023-02-17T01:48:06.776Z,97283.75
2023-02-17T01:50:39.851Z,97281.75
2023-02-17T01:53:13.065Z,97279.88
2023-02-17T01:55:43.397Z,97269.75
2023-02-17T01:58:15.271Z,97271.41
2023-02-17T02:00:44.265Z,97252.06
2023-02-17T02:03:15.861Z,97267.00
2023-02-17T02:05:45.051Z,97263.41
2023-02-17T02:08:16.405Z,97262.78
2023-02-17T02:10:44.761Z,97259.25
2023-02-17T02:13:15.183Z,97254.72
2023-02-17T02:15:53.914Z,97263.41
2023-02-17T02:18:33.416Z,97266.34
2023-02-17T02:21:44.886Z,97253.94
2023-02-17T02:24:26.754Z,97237.03
2023-02-17T02:27:24.320Z,97244.50
2023-02-17T02:30:24.841Z,97238.31
2023-02-17T02:33:14.082Z,97233.69
2023-02-17T02:35:52.358Z,97237.94
2023-02-17T02:38:25.164Z,97238.28
2023-02-17T02:41:00.516Z,97224.78
2023-02-17T02:43:30.294Z,97230.91
2023-02-17T02:46:01.082Z,97231.97
2023-02-17T02:48:31.859Z,97219.22
2023-02-17T02:51:15.007Z,97214.56
2023-02-17T02:53:56.520Z,97207.53
2023-02-17T02:56:40.182Z,97209.28
2023-02-17T02:59:22.348Z,97196.53
2023-02-17T03:02:02.035Z,97197.22
2023-02-17T03:04:38.167Z,97202.00
2023-02-17T03:07:13.022Z,97197.88
2023-02-17T03:09:42.462Z,97194.38
2023-02-17T03:12:14.663Z,97200.63
2023-02-17T03:14:44.539Z,97193.78
2023-02-17T03:17:13.453Z,97208.75
2023-02-17T03:19:45.522Z,97199.63
2023-02-17T03:22:21.311Z,97193.03
2023-02-17T03:24:49.887Z,97189.94
2023-02-17T03:27:18.234Z,97188.50
2023-02-17T03:29:50.187Z,97192.69
2023-02-17T03:32:20.615Z,97190.63
2023-02-17T03:34:52.020Z,97184.00
2023-02-17T03:37:20.365Z,97186.50
2023-02-17T03:39:49.721Z,97187.53
2023-02-17T03:42:18.094Z,97186.31
2023-02-17T03:44:47.328Z,97187.56
2023-02-17T03:47:15.955Z,97189.41
2023-02-17T03:49:44.743Z,97188.59
2023-02-17T03:52:14.424Z,97185.69
2023-02-17T03:54:43.576Z,97180.97
2023-02-17T03:57:11.999Z,97182.00
2023-02-17T03:59:41.125Z,97185.53
2023-02-17T04:02:09.439Z,97185.31
2023-02-17T04:04:39.705Z,97180.56
2023-02-17T04:07:08.060Z,97178.31
2023-02-17T04:09:38.240Z,97178.50
2023-02-17T04:12:06.775Z,97183.53
2023-02-17T04:14:35.242Z,97179.59
2023-02-17T04:17:03.974Z,97177.72
2023-02-17T04:19:32.326Z,97177.50
2023-02-17T04:22:00.640Z,97177.09
2023-02-17T04:24:29.673Z,97180.03
2023-02-17T04:26:59.362Z,97179.41
2023-02-17T04:29:29.101Z,97175.88
2023-02-17T04:31:57.630Z,97172.38
2023-02-17T04:34:26.055Z,97172.19
2023-02-17T04:36:54.426Z,97181.75
2023-02-17T04:39:22.918Z,97185.28
2023-02-17T04:41:51.763Z,97195.03
2023-02-17T04:44:21.497Z,97183.19
2023-02-17T04:46:50.949Z,97186.53
2023-02-17T04:49:19.234Z,97176.34
2023-02-17T04:51:48.143Z,97169.53
2023-02-17T04:54:17.004Z,97173.50
2023-02-17T04:56:45.316Z,97171.44
2023-02-17T04:59:14.443Z,97172.28
2023-02-17T05:01:44.163Z,97162.34
2023-02-17T05:04:13.045Z,97169.00
2023-02-17T05:06:41.427Z,97175.00
2023-02-17T05:09:10.384Z,97171.28
2023-02-17T05:11:39.087Z,97166.50
2023-02-17T05:14:07.470Z,97157.81
2023-02-17T05:16:36.263Z,97163.59
2023-02-17T05:19:06.006Z,97159.47
2023-02-17T05:21:35.565Z,97160.91
2023-02-17T05:24:03.982Z,97147.03
2023-02-17T05:26:33.239Z,97158.25
2023-02-17T05:29:01.535Z,97167.81
2023-02-17T05:31:31.007Z,97170.09
2023-02-17T05:33:59.820Z,97165.31
2023-02-17T05:36:29.813Z,97173.00
2023-02-17T05:38:58.843Z,97168.22
2023-02-17T05:41:27.169Z,97171.16
2023-02-17T05:43:57.138Z,97157.22
2023-02-17T05:46:25.610Z,97154.97
2023-02-17T05:48:54.757Z,97154.34
2023-02-17T05:51:23.105Z,97161.41
2023-02-17T05:53:54.486Z,97168.06
2023-02-17T05:56:22.892Z,97164.31
2023-02-17T05:58:51.932Z,97165.75
2023-02-17T06:01:20.852Z,97165.38
2023-02-17T06:03:50.788Z,97161.63
2023-02-17T06:06:19.122Z,97163.72
2023-02-17T06:08:48.547Z,97157.06
2023-02-17T06:11:18.343Z,97167.03
2023-02-17T06:13:47.191Z,97176.34
2023-02-17T06:16:15.587Z,97172.44
2023-02-17T06:18:44.954Z,97171.59
2023-02-17T06:21:13.289Z,97178.22
2023-02-17T06:23:43.012Z,97176.56
2023-02-17T06:26:11.325Z,97179.69
2023-02-17T06:28:41.526Z,97180.31
2023-02-17T06:31:10.484Z,97162.44
2023-02-17T06:33:38.936Z,97178.66
2023-02-17T06:36:09.282Z,97174.06
2023-02-17T06:38:38.176Z,97165.53
2023-02-17T06:41:07.204Z,97173.44
2023-02-17T06:43:36.789Z,97174.91
2023-02-17T06:46:06.886Z,97182.56
2023-02-17T06:48:36.266Z,97175.72
2023-02-17T06:51:04.903Z,97172.59
2023-02-17T06:53:34.581Z,97178.59
2023-02-17T06:56:03.057Z,97179.03
2023-02-17T06:58:32.991Z,97187.34
2023-02-17T07:01:01.840Z,97179.03
2023-02-17T07:03:32.845Z,97186.09
2023-02-17T07:06:02.293Z,97185.03
2023-02-17T07:08:31.378Z,97176.94
2023-02-17T07:11:00.914Z,97177.59
2023-02-17T07:13:29.298Z,97178.81
2023-02-17T07:15:58.048Z,97180.47
2023-02-17T07:18:26.403Z,97169.47
2023-02-17T07:20:56.148Z,97181.94
2023-02-17T07:23:24.483Z,97186.91
2023-02-17T07:25:53.254Z,97177.34
2023-02-17T07:28:22.073Z,97157.78
2023-02-17T07:30:50.421Z,97169.63
2023-02-17T07:33:19.236Z,97178.97
2023-02-17T07:35:48.210Z,97170.22
2023-02-17T07:38:18.724Z,97179.13
2023-02-17T07:40:47.030Z,97184.13
2023-02-17T07:43:15.739Z,97167.50
2023-02-17T07:45:44.658Z,97173.50
2023-02-17T07:48:13.841Z,97182.16
2023-02-17T07:50:42.210Z,97181.75
2023-02-17T07:53:10.954Z,97172.16
2023-02-17T07:55:41.105Z,97181.72
2023-02-17T07:58:09.395Z,97185.88
2023-02-17T08:00:37.796Z,97163.03
2023-02-17T08:03:06.099Z,97179.00
2023-02-17T08:05:34.996Z,97177.69
2023-02-17T08:08:21.047Z,97170.22
2023-02-17T08:11:09.568Z,97173.09
2023-02-17T08:13:38.561Z,97171.41
2023-02-17T08:16:08.392Z,97173.44
2023-02-17T08:18:36.972Z,97175.06
2023-02-17T08:21:07.031Z,97177.31
2023-02-17T08:23:35.575Z,97177.91
2023-02-17T08:26:06.257Z,97186.75
2023-02-17T08:28:34.752Z,97182.53
2023-02-17T08:31:03.935Z,97180.78
2023-02-17T08:33:32.594Z,97182.84
2023-02-17T08:36:07.827Z,97200.66
2023-02-17T08:38:36.347Z,97196.28
2023-02-17T08:41:15.162Z,97201.91
2023-02-17T08:43:43.768Z,97204.84
2023-02-17T08:46:13.755Z,97198.81
2023-02-17T08:48:43.577Z,97195.25
2023-02-17T08:51:13.939Z,97188.47
2023-02-17T08:53:42.887Z,97180.53
2023-02-17T08:56:11.237Z,97183.78
2023-02-17T08:58:41.305Z,97179.13
2023-02-17T09:01:09.862Z,97187.63
2023-02-17T09:03:39.654Z,97188.03
2023-02-17T09:06:09.542Z,97189.22
2023-02-17T09:08:41.427Z,97189.16
2023-02-17T09:11:10.528Z,97180.34
2023-02-17T09:13:39.017Z,97198.19
2023-02-17T09:16:10.016Z,97201.22
2023-02-17T09:18:38.560Z,97188.56
2023-02-17T09:21:09.170Z,97189.69
2023-02-17T09:23:37.662Z,97197.13
2023-02-17T09:26:10.446Z,97198.19
2023-02-17T09:28:39.935Z,97186.91
2023-02-17T09:31:15.461Z,97184.63
2023-02-17T09:33:44.400Z,97185.03
2023-02-17T09:36:16.166Z,97208.22
2023-02-17T09:38:45.090Z,97193.16
2023-02-17T09:41:19.315Z,97184.88
2023-02-17T09:43:49.248Z,97183.28
2023-02-17T09:46:24.999Z,97193.06
2023-02-17T09:48:57.063Z,97191.38
2023-02-17T09:51:30.559Z,97197.28
2023-02-17T09:54:08.204Z,97201.56
2023-02-17T09:56:41.110Z,97184.31
2023-02-17T09:59:15.974Z,97180.31
2023-02-17T10:01:47.102Z,97180.66
2023-02-17T10:04:21.235Z,97188.63
2023-02-17T10:06:54.652Z,97183.75
2023-02-17T10:09:30.250Z,97196.34
2023-02-17T10:12:03.605Z,97205.28
2023-02-17T10:14:38.349Z,97193.44
2023-02-17T10:17:14.717Z,97200.22
2023-02-17T10:19:52.364Z,97177.09
2023-02-17T10:22:23.096Z,97199.31
2023-02-17T10:24:51.996Z,97181.69
2023-02-17T10:27:36.614Z,97196.34
2023-02-17T10:30:21.151Z,97198.44
2023-02-17T10:33:01.027Z,97180.19
2023-02-17T10:35:49.764Z,97176.97
2023-02-17T10:38:22.768Z,97180.78
2023-02-17T10:40:52.575Z,97182.56
2023-02-17T10:43:26.949Z,97185.63
2023-02-17T10:45:56.182Z,97182.00
2023-02-17T10:48:33.457Z,97191.03
2023-02-17T10:51:03.155Z,97183.59
2023-02-17T10:53:35.288Z,97167.91
2023-02-17T10:56:09.945Z,97178.41
2023-02-17T10:58:47.432Z,97182.44
2023-02-17T11:01:16.665Z,97171.56
2023-02-17T11:03:46.444Z,97165.31
2023-02-17T11:06:22.593Z,97158.34
2023-02-17T11:08:53.471Z,97154.81
2023-02-17T11:11:24.848Z,97184.38
2023-02-17T11:14:18.876Z,97154.22
2023-02-17T11:16:53.566Z,97160.00
2023-02-17T11:19:26.517Z,97152.19
2023-02-17T11:21:57.627Z,97150.19
2023-02-17T11:24:26.751Z,97144.38
2023-02-17T11:26:59.769Z,97157.00
2023-02-17T11:29:28.436Z,97150.84
2023-02-17T11:32:00.362Z,97137.72
2023-02-17T11:34:32.960Z,97147.94
2023-02-17T11:37:04.514Z,97128.38
2023-02-17T11:39:38.837Z,97124.03
2023-02-17T11:42:16.471Z,97135.44
2023-02-17T11:44:44.835Z,97133.97
2023-02-17T11:47:25.706Z,97113.59
2023-02-17T11:50:39.047Z,97134.06
2023-02-17T11:53:27.866Z,97114.63
2023-02-17T11:56:07.661Z,97125.09
2023-02-17T11:58:55.329Z,97121.69
2023-02-17T12:01:44.129Z,97116.25
2023-02-17T12:04:27.992Z,97108.25
2023-02-17T12:07:15.448Z,97103.00
2023-02-17T12:09:55.482Z,97116.53
2023-02-17T12:12:36.243Z,97122.41
2023-02-17T12:15:22.436Z,97103.97
2023-02-17T12:17:57.705Z,97109.78
2023-02-17T12:20:38.252Z,97101.72
2023-02-17T12:23:25.251Z,97106.81
2023-02-17T12:26:00.581Z,97089.69
2023-02-17T12:28:43.267Z,97114.00
2023-02-17T12:31:22.860Z,97101.50
2023-02-17T12:34:00.631Z,97093.31
2023-02-17T12:36:35.240Z,97096.75
2023-02-17T12:39:14.526Z,97091.88
2023-02-17T12:41:49.736Z,97101.19
2023-02-17T12:44:22.067Z,97087.81
2023-02-17T12:46:55.356Z,97092.28
2023-02-17T12:49:28.573Z,97089.13
2023-02-17T12:52:05.427Z,97087.66
2023-02-17T12:54:41.742Z,97091.78
2023-02-17T12:57:16.508Z,97086.91
2023-02-17T12:59:46.983Z,97087.97
2023-02-17T13:02:18.519Z,97097.78
2023-02-17T13:04:50.682Z,97085.03
2023-02-17T13:07:42.487Z,97094.34
2023-02-17T13:10:32.037Z,97085.34
2023-02-17T13:13:04.313Z,97079.34
2023-02-17T13:15:36.510Z,97093.09
2023-02-17T13:18:07.410Z,97075.59
2023-02-17T13:20:55.493Z,97073.13
2023-02-17T13:23:31.779Z,97076.91
2023-02-17T13:26:30.852Z,97077.63
2023-02-17T13:29:34.302Z,97087.59
2023-02-17T13:32:06.099Z,97077.44
2023-02-17T13:34:37.288Z,97087.81
2023-02-17T13:37:19.341Z,97093.50
2023-02-17T13:39:48.015Z,97100.03
2023-02-17T13:42:37.184Z,97110.78
2023-02-17T13:45:19.888Z,97116.03
2023-02-17T13:47:50.082Z,97122.41
2023-02-17T13:50:31.835Z,97102.19
2023-02-17T13:53:00.752Z,97124.66
2023-02-17T13:55:29.711Z,97106.22
2023-02-17T13:58:00.718Z,97133.03
2023-02-17T14:00:30.674Z,97141.09
2023-02-17T14:03:03.403Z,97125.13
2023-02-17T14:05:40.083Z,97128.69
2023-02-17T14:08:15.978Z,97127.72
2023-02-17T14:10:45.014Z,97126.19
2023-02-17T14:13:16.112Z,97135.50
2023-02-17T14:15:53.410Z,97129.72
2023-02-17T14:18:35.147Z,97126.19
2023-02-17T14:21:09.823Z,97129.22
2023-02-17T14:23:46.880Z,97132.78
2023-02-17T14:26:27.136Z,97135.94
2023-02-17T14:29:00.215Z,97123.44
2023-02-17T14:31:29.437Z,97123.19
2023-02-17T14:34:01.436Z,97126.97
2023-02-17T14:36:32.967Z,97125.31
2023-02-17T14:39:04.823Z,97135.72
2023-02-17T14:41:33.700Z,97126.97
2023-02-17T14:44:03.420Z,97125.09
2023-02-17T14:46:33.114Z,97133.22
2023-02-17T14:49:01.730Z,97131.22
2023-02-17T14:51:35.389Z,97123.44
2023-02-17T14:54:05.301Z,97115.28
2023-02-17T14:56:37.230Z,97116.94
2023-02-17T14:59:07.690Z,97106.47
2023-02-17T15:01:36.123Z,97111.41
2023-02-17T15:04:05.246Z,97102.34
2023-02-17T15:06:41.062Z,97057.66
2023-02-17T15:09:13.370Z,97087.78
2023-02-17T15:11:45.479Z,97081.44
2023-02-17T15:14:17.845Z,97085.09
2023-02-17T15:16:46.948Z,97084.03
2023-02-17T15:19:18.536Z,97076.47
2023-02-17T15:21:49.353Z,97081.44
2023-02-17T15:24:21.791Z,97075.88
2023-02-17T15:26:51.104Z,97081.31
2023-02-17T15:29:23.048Z,97076.81
2023-02-17T15:31:55.714Z,97069.38
2023-02-17T15:34:29.313Z,97064.44
2023-02-17T15:36:58.869Z,97069.25
2023-02-17T15:39:27.997Z,97058.88
2023-02-17T15:41:58.383Z,97054.50
2023-02-17T15:44:37.650Z,97063.38
2023-02-17T15:47:06.528Z,97067.50
2023-02-17T15:49:35.587Z,97050.72
2023-02-17T15:52:04.266Z,97055.94
2023-02-17T15:54:32.599Z,97056.16
2023-02-17T15:57:03.309Z,97044.47
2023-02-17T15:59:33.820Z,97041.03
2023-02-17T16:02:02.853Z,97046.13
2023-02-17T16:04:31.360Z,97049.41
2023-02-17T16:07:00.396Z,97046.47
2023-02-17T16:09:28.766Z,97040.81
2023-02-17T16:11:57.368Z,97038.69
2023-02-17T16:14:33.023Z,97045.78
2023-02-17T16:17:02.924Z,97046.84
2023-02-17T16:19:31.645Z,97054.75
2023-02-17T16:22:00.016Z,97054.97
2023-02-17T16:24:28.800Z,97059.47
2023-02-17T16:26:58.256Z,97051.19
2023-02-17T16:29:26.752Z,97066.06
2023-02-17T16:31:56.392Z,97064.28
2023-02-17T16:34:26.744Z,97063.94
2023-02-17T16:36:59.666Z,97056.25
2023-02-17T16:39:28.180Z,97054.03
2023-02-17T16:41:58.226Z,97076.19
2023-02-17T16:44:26.576Z,97078.31
2023-02-17T16:46:57.040Z,97065.56
2023-02-17T16:49:33.063Z,97075.47
2023-02-17T16:52:02.468Z,97071.59
2023-02-17T16:54:33.773Z,97067.09
2023-02-17T16:57:03.755Z,97064.59
2023-02-17T16:59:32.577Z,97080.06
2023-02-17T17:02:01.498Z,97078.63
2023-02-17T17:04:31.355Z,97084.91
2023-02-17T17:06:59.664Z,97088.88
2023-02-17T17:09:30.437Z,97095.38
2023-02-17T17:11:59.152Z,97090.63
2023-02-17T17:14:28.080Z,97096.53
2023-02-17T17:17:00.287Z,97097.00
2023-02-17T17:19:28.691Z,97093.09
2023-02-17T17:21:59.196Z,97082.72
2023-02-17T17:24:28.232Z,97079.00
2023-02-17T17:26:56.545Z,97083.38
2023-02-17T17:29:26.315Z,97084.28
2023-02-17T17:31:54.692Z,97091.25
2023-02-17T17:34:23.810Z,97084.97
2023-02-17T17:36:52.158Z,97080.00
2023-02-17T17:39:24.676Z,97074.22
2023-02-17T17:41:53.801Z,97078.44
2023-02-17T17:44:22.600Z,97093.88
2023-02-17T17:46:51.069Z,97087.03
2023-02-17T17:49:19.849Z,97126.50
2023-02-17T17:51:48.660Z,97092.09
2023-02-17T17:54:17.058Z,97082.31
2023-02-17T17:56:46.987Z,97093.97
2023-02-17T17:59:15.693Z,97099.63
2023-02-17T18:01:45.846Z,97086.50
2023-02-17T18:04:14.583Z,97094.88
2023-02-17T18:06:46.796Z,97097.59
2023-02-17T18:09:30.599Z,97092.41
2023-02-17T18:12:05.216Z,97096.16
2023-02-17T18:14:36.036Z,97098.50
2023-02-17T18:17:05.255Z,97086.00
2023-02-17T18:19:33.782Z,97085.41
2023-02-17T18:22:02.632Z,97089.19
2023-02-17T18:24:31.083Z,97084.00
2023-02-17T18:27:00.770Z,97090.25
2023-02-17T18:29:30.309Z,97080.06
2023-02-17T18:32:00.067Z,97073.81
2023-02-17T18:34:28.525Z,97065.91
2023-02-17T18:36:56.888Z,97088.88
2023-02-17T18:39:25.219Z,97079.31
2023-02-17T18:41:53.670Z,97088.50
2023-02-17T18:44:23.356Z,97105.81
2023-02-17T18:46:53.584Z,97084.81
2023-02-17T18:49:21.897Z,97087.91
2023-02-17T18:51:51.566Z,97060.66
2023-02-17T18:54:21.278Z,97093.59
2023-02-17T18:56:49.610Z,97106.41
2023-02-17T18:59:18.951Z,97104.53
2023-02-17T19:01:49.100Z,97106.78
2023-02-17T19:04:17.529Z,97110.47
2023-02-17T19:06:46.462Z,97114.25
2023-02-17T19:09:14.942Z,97099.69
2023-02-17T19:11:43.357Z,97123.19
2023-02-17T19:14:12.393Z,97117.78
2023-02-17T19:16:40.756Z,97121.25
2023-02-17T19:19:10.861Z,97114.75
2023-02-17T19:21:39.289Z,97122.88
2023-02-17T19:24:09.464Z,97120.56
2023-02-17T19:26:38.027Z,97121.75
2023-02-17T19:29:06.470Z,97130.72
2023-02-17T19:31:34.966Z,97118.59
2023-02-17T19:34:04.393Z,97134.63
2023-02-17T19:36:34.146Z,97149.03
2023-02-17T19:39:03.339Z,97141.28
2023-02-17T19:41:34.925Z,97132.69
2023-02-17T19:44:04.437Z,97143.06
2023-02-17T19:46:33.300Z,97145.56
2023-02-17T19:49:01.628Z,97150.97
2023-02-17T19:51:31.694Z,97138.59
2023-02-17T19:54:02.877Z,97146.75
2023-02-17T19:56:33.122Z,97134.25
2023-02-17T19:59:02.393Z,97111.56
2023-02-17T20:01:33.133Z,97137.34
2023-02-17T20:04:05.622Z,97127.09
2023-02-17T20:06:35.725Z,97114.19
2023-02-17T20:09:09.245Z,97125.78
2023-02-17T20:11:37.950Z,97132.03
2023-02-17T20:14:08.657Z,97125.78
2023-02-17T20:16:36.991Z,97134.50
2023-02-17T20:19:06.499Z,97119.19
2023-02-17T20:21:38.209Z,97139.94
2023-02-17T20:24:08.468Z,97143.88
2023-02-17T20:26:40.965Z,97137.38
2023-02-17T20:29:10.884Z,97155.97
2023-02-17T20:31:40.856Z,97145.94
2023-02-17T20:34:23.026Z,97126.19
2023-02-17T20:36:51.812Z,97138.97
2023-02-17T20:39:21.520Z,97138.53
2023-02-17T20:41:51.302Z,97138.28
2023-02-17T20:44:20.396Z,97147.03
2023-02-17T20:46:49.436Z,97137.22
2023-02-17T20:49:18.640Z,97158.19
2023-02-17T20:51:47.590Z,97151.34
2023-02-17T20:54:17.229Z,97146.41
2023-02-17T20:56:48.654Z,97136.75
2023-02-17T20:59:17.071Z,97150.00
2023-02-17T21:01:45.989Z,97152.25
2023-02-17T21:04:15.771Z,97150.94
2023-02-17T21:06:47.049Z,97141.47
2023-02-17T21:09:19.408Z,97161.94
2023-02-17T21:11:49.175Z,97163.13
2023-02-17T21:14:18.430Z,97168.34
2023-02-17T21:16:47.511Z,97156.16
2023-02-17T21:19:16.699Z,97177.44
2023-02-17T21:21:45.048Z,97187.25
2023-02-17T21:24:13.722Z,97198.94
2023-02-17T21:26:42.438Z,97172.22
2023-02-17T21:29:14.419Z,97185.13
2023-02-17T21:31:42.957Z,97188.66
2023-02-17T21:34:12.380Z,97175.91
2023-02-17T21:36:41.082Z,97179.91
2023-02-17T21:39:09.436Z,97181.44
2023-02-17T21:41:42.853Z,97170.56
2023-02-17T21:44:32.231Z,97156.88
2023-02-17T21:47:00.606Z,97149.44
2023-02-17T21:49:29.288Z,97156.97
2023-02-17T21:51:58.868Z,97150.34
2023-02-17T21:54:27.273Z,97154.38
2023-02-17T21:56:56.586Z,97167.81
2023-02-17T21:59:26.372Z,97170.06
2023-02-17T22:01:56.803Z,97173.63
2023-02-17T22:04:28.107Z,97190.94
2023-02-17T22:06:57.599Z,97178.81
2023-02-17T22:09:25.973Z,97183.66
2023-02-17T22:11:56.153Z,97173.38
2023-02-17T22:14:27.105Z,97185.66
2023-02-17T22:16:57.917Z,97183.16
2023-02-17T22:19:28.771Z,97185.06
2023-02-17T22:21:59.118Z,97192.16
2023-02-17T22:24:27.980Z,97200.53
2023-02-17T22:29:45.330Z,97218.47
2023-02-17T22:32:13.760Z,97210.56
2023-02-17T22:34:42.373Z,97235.59
2023-02-17T22:37:11.172Z,97220.81
2023-02-17T22:39:39.892Z,97208.28
2023-02-17T22:42:08.202Z,97217.25
2023-02-17T22:44:37.748Z,97226.94
2023-02-17T22:47:07.628Z,97211.25
2023-02-17T22:49:35.954Z,97210.66
2023-02-17T22:52:05.243Z,97215.50
2023-02-17T22:54:33.883Z,97216.53
2023-02-17T22:57:03.955Z,97221.13
2023-02-17T22:59:32.354Z,97217.81
2023-02-17T23:02:01.790Z,97221.84
2023-02-17T23:04:31.440Z,97226.28
2023-02-17T23:07:00.668Z,97224.63
2023-02-17T23:09:29.033Z,97229.25
2023-02-17T23:11:59.574Z,97230.50
2023-02-17T23:14:29.626Z,97219.84
2023-02-17T23:17:00.710Z,97241.84
2023-02-17T23:19:31.405Z,97205.97
2023-02-17T23:22:03.822Z,97227.75
2023-02-17T23:24:32.998Z,97233.09
2023-02-17T23:27:03.220Z,97241.09
2023-02-17T23:29:32.949Z,97239.44
2023-02-17T23:32:02.362Z,97238.84
2023-02-17T23:34:33.233Z,97247.41
2023-02-17T23:37:02.627Z,97259.34
2023-02-17T23:39:32.181Z,97242.31
2023-02-17T23:42:00.496Z,97250.25
2023-02-17T23:44:30.683Z,97237.59
2023-02-17T23:46:59.344Z,97248.59
2023-02-17T23:49:29.196Z,97251.91
2023-02-17T23:51:58.915Z,97244.63
2023-02-17T23:54:28.591Z,97240.47
2023-02-17T23:56:56.903Z,97236.09
2023-02-17T23:59:26.894Z,97250.91
